createdAt,value
2022-09-28T00:00:54.774Z,62.11
2022-09-28T00:02:57.669Z,59.01
2022-09-28T00:04:59.344Z,61.96
2022-09-28T00:07:01.148Z,63.15
2022-09-28T00:09:04.165Z,63.71
2022-09-28T00:11:08.079Z,62.59
2022-09-28T00:13:09.709Z,60.45
2022-09-28T00:15:11.291Z,60.11
2022-09-28T00:17:13.367Z,59.82
2022-09-28T00:19:15.255Z,59.54
2022-09-28T00:21:19.844Z,60.96
2022-09-28T00:23:21.427Z,63.23
2022-09-28T00:25:25.037Z,59.81
2022-09-28T00:27:26.764Z,64.36
2022-09-28T00:29:30.161Z,63.06
2022-09-28T00:31:33.863Z,61.35
2022-09-28T00:33:35.568Z,59.58
2022-09-28T00:35:37.178Z,61.81
2022-09-28T00:37:39.326Z,61.99
2022-09-28T00:39:44.458Z,60.88
2022-09-28T00:41:47.116Z,60.07
2022-09-28T00:43:48.786Z,58.93
2022-09-28T00:45:59.199Z,60.16
2022-09-28T00:48:01.158Z,60.14
2022-09-28T00:50:19.822Z,56.85
2022-09-28T00:52:49.146Z,60.02
2022-09-28T00:54:53.464Z,60.02
2022-09-28T00:56:56.363Z,60.67
2022-09-28T00:58:59.845Z,61.16
2022-09-28T01:01:02.375Z,60.73
2022-09-28T01:03:04.223Z,59.01
2022-09-28T01:05:07.426Z,61.22
2022-09-28T01:07:10.109Z,56.55
2022-09-28T01:09:14.194Z,56.33
2022-09-28T01:11:16.024Z,55.18
2022-09-28T01:13:19.184Z,59.12
2022-09-28T01:15:22.153Z,60.98
2022-09-28T01:17:39.933Z,60.21
2022-09-28T01:19:44.310Z,61.32
2022-09-28T01:21:54.071Z,60.02
2022-09-28T01:24:04.952Z,63.68
2022-09-28T01:26:39.315Z,59.00
2022-09-28T01:28:44.309Z,58.53
2022-09-28T01:31:00.310Z,61.56
2022-09-28T01:33:07.314Z,59.34
2022-09-28T01:35:17.451Z,61.83
2022-09-28T01:37:21.620Z,61.02
2022-09-28T01:39:34.727Z,62.17
2022-09-28T01:41:40.383Z,60.94
2022-09-28T01:43:51.764Z,58.70
2022-09-28T01:45:55.647Z,61.88
2022-09-28T01:48:03.481Z,62.41
2022-09-28T01:50:15.654Z,57.60
2022-09-28T01:52:25.127Z,57.69
2022-09-28T01:54:36.349Z,56.99
2022-09-28T01:56:47.548Z,55.56
2022-09-28T01:59:00.213Z,54.27
2022-09-28T02:01:13.199Z,53.52
2022-09-28T02:03:25.386Z,54.62
2022-09-28T02:05:34.036Z,55.30
2022-09-28T02:07:43.657Z,53.78
2022-09-28T02:09:56.317Z,54.61
2022-09-28T02:12:05.968Z,54.52
2022-09-28T02:14:15.328Z,53.93
2022-09-28T02:16:39.449Z,54.63
2022-09-28T02:18:42.118Z,55.48
2022-09-28T02:20:53.021Z,55.22
2022-09-28T02:22:56.909Z,54.23
2022-09-28T02:25:10.555Z,52.47
2022-09-28T02:27:25.000Z,53.06
2022-09-28T02:29:26.746Z,53.43
2022-09-28T02:31:28.530Z,51.89
2022-09-28T02:33:43.604Z,54.48
2022-09-28T02:35:46.264Z,53.01
2022-09-28T02:37:49.691Z,54.71
2022-09-28T02:39:51.424Z,54.28
2022-09-28T02:41:56.167Z,52.95
2022-09-28T02:44:16.139Z,53.17
2022-09-28T02:46:32.996Z,53.18
2022-09-28T02:49:20.496Z,54.81
2022-09-28T02:51:44.987Z,54.36
2022-09-28T02:54:14.348Z,54.27
2022-09-28T02:56:52.994Z,55.42
2022-09-28T02:59:23.430Z,53.94
2022-09-28T03:01:31.050Z,52.91
2022-09-28T03:03:32.644Z,53.85
2022-09-28T03:05:55.779Z,55.13
2022-09-28T03:08:01.179Z,54.58
2022-09-28T03:10:16.107Z,54.18
2022-09-28T03:12:20.777Z,53.74
2022-09-28T03:14:22.918Z,54.86
2022-09-28T03:16:24.699Z,52.77
2022-09-28T03:18:26.342Z,53.13
2022-09-28T03:20:30.034Z,54.18
2022-09-28T03:22:31.624Z,53.39
2022-09-28T03:24:33.238Z,54.31
2022-09-28T03:26:34.800Z,54.22
2022-09-28T03:28:36.403Z,53.37
2022-09-28T03:30:39.369Z,52.77
2022-09-28T03:32:41.403Z,52.27
2022-09-28T03:34:43.014Z,51.88
2022-09-28T03:36:44.644Z,51.05
2022-09-28T03:38:46.282Z,51.31
2022-09-28T03:40:59.135Z,51.65
2022-09-28T03:43:01.205Z,52.48
2022-09-28T03:45:02.837Z,52.05
2022-09-28T03:47:04.625Z,51.67
2022-09-28T03:49:06.276Z,51.74
2022-09-28T03:51:09.981Z,52.84
2022-09-28T03:53:11.871Z,50.94
2022-09-28T03:55:13.671Z,50.39
2022-09-28T03:57:15.222Z,52.02
2022-09-28T03:59:16.987Z,50.92
2022-09-28T04:01:18.862Z,51.27
2022-09-28T04:03:20.673Z,52.36
2022-09-28T04:05:22.329Z,52.24
2022-09-28T04:07:26.856Z,50.42
2022-09-28T04:09:30.595Z,51.09
2022-09-28T04:11:47.590Z,51.25
2022-09-28T04:13:53.835Z,51.54
2022-09-28T04:15:58.352Z,49.83
2022-09-28T04:18:00.001Z,50.58
2022-09-28T04:20:03.357Z,50.34
2022-09-28T04:22:04.973Z,50.89
2022-09-28T04:24:06.620Z,51.03
2022-09-28T04:26:16.746Z,50.90
2022-09-28T04:28:37.127Z,51.06
2022-09-28T04:30:38.883Z,50.60
2022-09-28T04:32:40.486Z,50.48
2022-09-28T04:34:44.310Z,50.20
2022-09-28T04:36:47.202Z,49.47
2022-09-28T04:38:53.160Z,49.61
2022-09-28T04:40:55.306Z,50.06
2022-09-28T04:42:57.410Z,51.36
2022-09-28T04:45:01.001Z,51.29
2022-09-28T04:47:05.191Z,49.43
2022-09-28T04:49:07.068Z,51.11
2022-09-28T04:51:08.692Z,50.75
2022-09-28T04:53:10.286Z,50.92
2022-09-28T04:55:13.626Z,50.50
2022-09-28T04:57:15.232Z,49.72
2022-09-28T04:59:16.929Z,50.05
2022-09-28T05:01:21.061Z,51.10
2022-09-28T05:03:22.755Z,51.37
2022-09-28T05:05:24.789Z,50.50
2022-09-28T05:07:26.958Z,50.47
2022-09-28T05:09:28.898Z,51.50
2022-09-28T05:11:30.703Z,51.27
2022-09-28T05:13:41.680Z,51.37
2022-09-28T05:15:43.357Z,51.11
2022-09-28T05:17:44.980Z,49.97
2022-09-28T05:19:46.556Z,49.89
2022-09-28T05:21:49.209Z,49.61
2022-09-28T05:23:51.507Z,50.05
2022-09-28T05:25:53.572Z,49.91
2022-09-28T05:27:58.339Z,50.14
2022-09-28T05:29:59.937Z,49.03
2022-09-28T05:32:01.831Z,49.49
2022-09-28T05:34:03.713Z,48.91
2022-09-28T05:36:08.409Z,49.37
2022-09-28T05:38:09.971Z,49.29
2022-09-28T05:40:12.195Z,49.87
2022-09-28T05:42:13.773Z,49.96
2022-09-28T05:44:15.500Z,49.39
2022-09-28T05:46:18.546Z,49.52
2022-09-28T05:48:20.208Z,49.54
2022-09-28T05:50:21.835Z,50.42
2022-09-28T05:52:23.441Z,49.90
2022-09-28T05:54:25.042Z,49.98
2022-09-28T05:56:26.650Z,50.08
2022-09-28T05:58:28.721Z,50.17
2022-09-28T06:00:31.955Z,50.23
2022-09-28T06:02:33.730Z,51.41
2022-09-28T06:04:35.375Z,50.02
2022-09-28T06:06:38.439Z,49.37
2022-09-28T06:08:43.019Z,50.22
2022-09-28T06:10:44.887Z,51.54
2022-09-28T06:12:47.971Z,50.39
2022-09-28T06:14:49.577Z,50.04
2022-09-28T06:16:51.449Z,51.36
2022-09-28T06:18:53.060Z,51.58
2022-09-28T06:20:54.642Z,49.35
2022-09-28T06:22:56.262Z,50.14
2022-09-28T06:24:57.863Z,50.01
2022-09-28T06:26:59.444Z,50.23
2022-09-28T06:29:01.334Z,49.73
2022-09-28T06:31:03.257Z,49.45
2022-09-28T06:33:06.952Z,49.70
2022-09-28T06:35:10.017Z,48.57
2022-09-28T06:37:11.628Z,49.90
2022-09-28T06:39:13.282Z,49.53
2022-09-28T06:41:15.719Z,50.14
2022-09-28T06:43:17.424Z,50.24
2022-09-28T06:45:21.852Z,50.10
2022-09-28T06:47:23.454Z,49.93
2022-09-28T06:49:27.846Z,49.75
2022-09-28T06:51:29.457Z,51.33
2022-09-28T06:53:32.563Z,51.08
2022-09-28T06:55:34.195Z,51.11
2022-09-28T06:57:35.861Z,51.23
2022-09-28T06:59:37.526Z,52.23
2022-09-28T07:01:39.203Z,51.58
2022-09-28T07:03:40.845Z,51.79
2022-09-28T07:05:45.823Z,50.93
2022-09-28T07:07:47.670Z,50.83
2022-09-28T07:09:55.342Z,52.41
2022-09-28T07:11:59.390Z,52.39
2022-09-28T07:14:00.947Z,51.65
2022-09-28T07:16:02.613Z,50.90
2022-09-28T07:18:06.301Z,49.91
2022-09-28T07:20:16.405Z,50.64
2022-09-28T07:22:29.153Z,51.49
2022-09-28T07:24:36.183Z,51.49
2022-09-28T07:26:37.769Z,50.43
2022-09-28T07:28:41.553Z,50.23
2022-09-28T07:30:44.692Z,50.58
2022-09-28T07:32:46.557Z,50.66
2022-09-28T07:34:48.823Z,49.92
2022-09-28T07:36:52.009Z,49.13
2022-09-28T07:38:53.744Z,50.74
2022-09-28T07:41:11.799Z,50.58
2022-09-28T07:43:13.538Z,51.02
2022-09-28T07:45:15.328Z,50.30
2022-09-28T07:47:18.923Z,49.49
2022-09-28T07:49:22.543Z,50.43
2022-09-28T07:51:24.315Z,50.08
2022-09-28T07:53:26.020Z,49.43
2022-09-28T07:55:27.642Z,49.38
2022-09-28T07:57:29.288Z,49.89
2022-09-28T07:59:31.814Z,49.97
2022-09-28T08:01:33.559Z,50.04
2022-09-28T08:03:35.551Z,49.46
2022-09-28T08:05:37.658Z,49.33
2022-09-28T08:07:39.417Z,49.16
2022-09-28T08:09:41.048Z,49.88
2022-09-28T08:11:43.946Z,49.61
2022-09-28T08:13:46.574Z,50.93
2022-09-28T08:15:51.365Z,50.75
2022-09-28T08:17:52.970Z,49.87
2022-09-28T08:20:13.065Z,49.45
2022-09-28T08:22:15.656Z,50.69
2022-09-28T08:24:18.154Z,50.13
2022-09-28T08:26:19.993Z,49.44
2022-09-28T08:28:23.798Z,50.29
2022-09-28T08:30:26.777Z,50.80
2022-09-28T08:32:29.772Z,50.39
2022-09-28T08:34:31.350Z,50.07
2022-09-28T08:36:34.499Z,50.00
2022-09-28T08:38:36.141Z,48.71
2022-09-28T08:41:06.391Z,50.12
2022-09-28T08:43:24.667Z,50.29
2022-09-28T08:45:28.910Z,47.71
2022-09-28T08:48:22.309Z,48.71
2022-09-28T08:50:29.100Z,49.63
2022-09-28T08:52:38.266Z,49.23
2022-09-28T08:54:56.209Z,49.74
2022-09-28T08:57:11.016Z,49.07
2022-09-28T08:59:17.222Z,47.96
2022-09-28T09:01:20.397Z,48.51
2022-09-28T09:03:41.900Z,47.94
2022-09-28T09:06:02.213Z,48.54
2022-09-28T09:08:13.992Z,49.41
2022-09-28T09:10:28.690Z,48.70
2022-09-28T09:15:18.941Z,49.24
2022-09-28T09:17:58.769Z,48.53
2022-09-28T09:20:15.758Z,48.02
2022-09-28T09:22:40.079Z,48.00
2022-09-28T09:24:59.967Z,49.69
2022-09-28T09:27:14.111Z,48.19
2022-09-28T09:29:46.500Z,49.23
2022-09-28T09:32:06.563Z,48.42
2022-09-28T09:34:16.172Z,48.55
2022-09-28T09:36:28.134Z,48.57
2022-09-28T09:38:35.732Z,48.91
2022-09-28T09:40:50.306Z,49.26
2022-09-28T09:43:21.131Z,49.33
2022-09-28T09:45:43.038Z,48.97
2022-09-28T09:47:50.738Z,49.05
2022-09-28T09:50:13.582Z,48.91
2022-09-28T09:52:27.969Z,48.46
2022-09-28T09:54:36.995Z,48.29
2022-09-28T09:56:59.507Z,50.11
2022-09-28T09:59:27.843Z,48.16
2022-09-28T10:01:36.231Z,49.61
2022-09-28T10:03:42.397Z,49.10
2022-09-28T10:05:56.868Z,50.26
2022-09-28T10:08:14.679Z,49.18
2022-09-28T10:10:23.905Z,48.72
2022-09-28T10:12:25.921Z,49.28
2022-09-28T10:14:27.925Z,48.62
2022-09-28T10:16:33.152Z,48.51
2022-09-28T10:18:35.924Z,48.64
2022-09-28T10:20:40.071Z,49.13
2022-09-28T10:22:42.540Z,48.76
2022-09-28T10:24:51.380Z,49.00
2022-09-28T10:26:56.155Z,48.58
2022-09-28T10:29:12.419Z,49.03
2022-09-28T10:31:34.444Z,48.28
2022-09-28T10:33:36.522Z,47.54
2022-09-28T10:35:43.413Z,47.33
2022-09-28T10:37:54.366Z,47.96
2022-09-28T10:39:56.351Z,47.60
2022-09-28T10:42:02.653Z,48.07
2022-09-28T10:44:08.784Z,48.69
2022-09-28T10:46:13.911Z,49.15
2022-09-28T10:48:20.313Z,47.38
2022-09-28T10:50:25.223Z,46.96
2022-09-28T10:52:31.071Z,47.38
2022-09-28T10:54:34.174Z,49.05
2022-09-28T10:56:37.481Z,48.28
2022-09-28T10:58:42.084Z,46.97
2022-09-28T11:03:28.033Z,51.37
2022-09-28T11:05:30.121Z,53.13
2022-09-28T11:07:34.094Z,52.64
2022-09-28T11:09:42.856Z,49.94
2022-09-28T11:11:45.852Z,49.99
2022-09-28T11:13:48.522Z,48.63
2022-09-28T11:15:50.320Z,48.71
2022-09-28T11:17:52.021Z,48.82
2022-09-28T11:19:55.170Z,48.80
2022-09-28T11:21:56.743Z,48.72
2022-09-28T11:24:19.481Z,49.30
2022-09-28T11:26:21.968Z,51.10
2022-09-28T11:28:28.814Z,50.42
2022-09-28T11:30:40.650Z,49.68
2022-09-28T11:32:44.602Z,49.79
2022-09-28T11:34:59.311Z,49.46
2022-09-28T11:37:19.580Z,49.98
2022-09-28T11:39:42.839Z,50.07
2022-09-28T11:41:58.556Z,49.26
2022-09-28T11:44:32.497Z,48.30
2022-09-28T11:46:51.690Z,48.45
2022-09-28T11:49:00.032Z,47.80
2022-09-28T11:51:07.756Z,47.81
2022-09-28T11:53:23.356Z,48.92
2022-09-28T11:55:38.612Z,49.62
2022-09-28T11:57:45.169Z,48.67
2022-09-28T12:00:12.336Z,48.68
2022-09-28T12:02:22.372Z,48.25
2022-09-28T12:04:31.982Z,48.95
2022-09-28T12:06:40.919Z,48.49
2022-09-28T12:08:49.124Z,48.04
2022-09-28T12:10:59.453Z,49.06
2022-09-28T12:13:05.862Z,49.29
2022-09-28T12:16:11.654Z,49.33
2022-09-28T12:18:11.557Z,47.72
2022-09-28T12:20:23.745Z,47.12
2022-09-28T12:23:07.455Z,47.31
2022-09-28T12:25:15.306Z,46.70
2022-09-28T12:27:41.842Z,47.89
2022-09-28T12:29:48.605Z,46.20
2022-09-28T12:31:59.894Z,47.93
2022-09-28T12:34:02.252Z,46.92
2022-09-28T12:36:09.766Z,46.90
2022-09-28T12:38:14.360Z,46.59
2022-09-28T12:40:22.361Z,46.99
2022-09-28T12:43:19.313Z,46.13
2022-09-28T12:46:09.978Z,46.19
2022-09-28T12:48:56.682Z,44.86
2022-09-28T12:51:05.822Z,44.74
2022-09-28T12:53:07.447Z,43.63
2022-09-28T12:55:30.070Z,43.77
2022-09-28T12:58:06.667Z,45.00
2022-09-28T13:00:11.931Z,45.22
2022-09-28T13:02:52.443Z,44.41
2022-09-28T13:05:05.619Z,44.30
2022-09-28T13:07:20.370Z,43.05
2022-09-28T13:09:27.557Z,43.71
2022-09-28T13:11:35.520Z,42.35
2022-09-28T13:13:49.208Z,42.56
2022-09-28T13:15:58.989Z,44.30
2022-09-28T13:18:03.947Z,43.83
2022-09-28T13:20:35.878Z,44.80
2022-09-28T13:23:13.001Z,43.98
2022-09-28T13:25:17.997Z,44.23
2022-09-28T13:27:37.124Z,44.00
2022-09-28T13:31:51.715Z,43.63
2022-09-28T13:33:53.815Z,42.53
2022-09-28T13:35:55.377Z,41.72
2022-09-28T13:38:20.710Z,42.33
2022-09-28T13:41:00.931Z,41.84
2022-09-28T13:43:19.592Z,42.88
2022-09-28T13:45:21.451Z,43.17
2022-09-28T13:48:20.490Z,43.00
2022-09-28T13:50:43.222Z,43.94
2022-09-28T13:53:02.131Z,44.36
2022-09-28T13:55:23.759Z,44.64
2022-09-28T13:57:37.286Z,44.41
2022-09-28T14:00:36.662Z,45.10
2022-09-28T14:03:06.116Z,45.25
2022-09-28T14:05:22.788Z,45.17
2022-09-28T14:09:48.780Z,45.92
2022-09-28T14:12:01.378Z,42.36
2022-09-28T14:14:11.376Z,44.91
2022-09-28T14:16:19.454Z,43.68
2022-09-28T14:18:38.978Z,43.37
2022-09-28T14:20:56.376Z,44.79
2022-09-28T14:23:01.369Z,46.71
2022-09-28T14:25:24.786Z,45.22
2022-09-28T14:27:44.936Z,45.03
2022-09-28T14:29:49.788Z,45.42
2022-09-28T14:31:51.409Z,43.25
2022-09-28T14:33:59.344Z,45.35
2022-09-28T14:36:04.956Z,43.63
2022-09-28T14:38:33.588Z,43.76
2022-09-28T14:41:09.606Z,43.82
2022-09-28T14:43:35.649Z,45.03
2022-09-28T14:45:38.910Z,45.19
2022-09-28T14:48:03.518Z,44.68
2022-09-28T14:50:20.408Z,42.76
2022-09-28T14:52:39.399Z,43.35
2022-09-28T14:54:54.313Z,43.02
2022-09-28T14:57:08.139Z,43.93
2022-09-28T14:59:25.385Z,43.26
2022-09-28T15:01:27.976Z,43.86
2022-09-28T15:03:32.816Z,43.80
2022-09-28T15:05:47.548Z,43.30
2022-09-28T15:07:51.971Z,44.23
2022-09-28T15:09:56.700Z,44.18
2022-09-28T15:12:04.725Z,44.20
2022-09-28T15:14:08.376Z,43.56
2022-09-28T15:16:13.883Z,43.59
2022-09-28T15:18:18.548Z,43.92
2022-09-28T15:20:30.500Z,44.16
2022-09-28T15:22:33.644Z,42.18
2022-09-28T15:24:35.268Z,43.51
2022-09-28T15:26:37.000Z,45.98
2022-09-28T15:28:45.040Z,44.40
2022-09-28T15:30:46.663Z,45.15
2022-09-28T15:32:48.692Z,43.63
2022-09-28T15:34:54.518Z,46.37
2022-09-28T15:36:56.504Z,47.10
2022-09-28T15:39:01.720Z,45.25
2022-09-28T15:41:06.662Z,48.30
2022-09-28T15:43:21.012Z,48.19
2022-09-28T15:45:25.538Z,49.25
2022-09-28T15:47:31.968Z,45.94
2022-09-28T15:49:39.044Z,44.42
2022-09-28T15:51:53.649Z,43.91
2022-09-28T15:54:02.954Z,45.71
2022-09-28T15:56:10.133Z,47.65
2022-09-28T15:58:18.818Z,48.56
2022-09-28T16:00:30.173Z,49.58
2022-09-28T16:02:31.835Z,49.95
2022-09-28T16:04:38.840Z,49.01
2022-09-28T16:06:41.342Z,50.14
2022-09-28T16:08:45.381Z,48.46
2022-09-28T16:11:12.776Z,48.08
2022-09-28T16:13:18.670Z,47.95
2022-09-28T16:15:25.610Z,46.63
2022-09-28T16:17:35.313Z,47.17
2022-09-28T16:19:38.025Z,46.68
2022-09-28T16:21:47.913Z,46.52
2022-09-28T16:23:58.266Z,46.78
2022-09-28T16:26:14.689Z,46.40
2022-09-28T16:28:49.020Z,46.94
2022-09-28T16:31:00.278Z,48.04
2022-09-28T16:33:05.753Z,48.03
2022-09-28T16:35:13.144Z,48.20
2022-09-28T16:37:31.980Z,47.27
2022-09-28T16:39:33.558Z,48.07
2022-09-28T16:41:35.324Z,49.84
2022-09-28T16:43:37.087Z,47.43
2022-09-28T16:45:38.840Z,47.35
2022-09-28T16:47:40.707Z,48.91
2022-09-28T16:49:42.699Z,48.21
2022-09-28T16:51:46.443Z,46.70
2022-09-28T16:54:07.013Z,45.71
2022-09-28T16:56:09.310Z,45.63
2022-09-28T16:58:10.891Z,45.42
2022-09-28T17:00:22.993Z,45.53
2022-09-28T17:04:47.908Z,44.81
2022-09-28T17:06:51.233Z,45.76
2022-09-28T17:08:58.428Z,44.75
2022-09-28T17:11:24.024Z,46.24
2022-09-28T17:13:33.484Z,47.81
2022-09-28T17:15:35.672Z,46.99
2022-09-28T17:17:39.212Z,47.26
2022-09-28T17:19:41.596Z,47.79
2022-09-28T17:21:43.218Z,48.76
2022-09-28T17:23:46.562Z,47.43
2022-09-28T17:25:48.681Z,46.89
2022-09-28T17:27:51.936Z,47.62
2022-09-28T17:29:53.553Z,47.84
2022-09-28T17:31:55.324Z,47.40
2022-09-28T17:33:56.974Z,46.92
2022-09-28T17:36:04.992Z,48.53
2022-09-28T17:38:06.741Z,47.26
2022-09-28T17:40:28.515Z,47.88
2022-09-28T17:42:30.295Z,47.95
2022-09-28T17:44:31.855Z,48.24
2022-09-28T17:46:36.759Z,47.03
2022-09-28T17:48:38.479Z,48.75
2022-09-28T17:50:44.389Z,51.04
2022-09-28T17:52:52.125Z,52.45
2022-09-28T17:54:53.727Z,52.75
2022-09-28T17:56:55.296Z,49.56
2022-09-28T17:58:58.992Z,48.55
2022-09-28T18:01:00.678Z,50.87
2022-09-28T18:03:02.287Z,50.36
2022-09-28T18:05:04.111Z,48.32
2022-09-28T18:07:05.786Z,47.58
2022-09-28T18:09:08.884Z,46.65
2022-09-28T18:11:11.278Z,48.63
2022-09-28T18:13:13.766Z,46.73
2022-09-28T18:15:16.614Z,48.22
2022-09-28T18:17:18.243Z,47.76
2022-09-28T18:19:19.948Z,49.33
2022-09-28T18:21:21.760Z,51.22
2022-09-28T18:23:23.431Z,51.35
2022-09-28T18:25:25.083Z,51.32
2022-09-28T18:27:30.079Z,50.31
2022-09-28T18:29:33.571Z,51.70
2022-09-28T18:31:36.769Z,53.46
2022-09-28T18:33:38.841Z,51.52
2022-09-28T18:35:41.083Z,52.60
2022-09-28T18:37:42.738Z,53.09
2022-09-28T18:39:44.302Z,54.31
2022-09-28T18:41:45.872Z,55.64
2022-09-28T18:43:51.134Z,56.72
2022-09-28T18:45:54.126Z,55.10
2022-09-28T18:47:55.745Z,54.33
2022-09-28T18:49:58.707Z,53.97
2022-09-28T18:52:01.319Z,53.54
2022-09-28T18:54:07.628Z,53.80
2022-09-28T18:56:12.211Z,56.04
2022-09-28T18:58:13.802Z,54.24
2022-09-28T19:00:15.478Z,53.86
2022-09-28T19:02:17.185Z,54.68
2022-09-28T19:04:22.439Z,54.72
2022-09-28T19:06:24.010Z,52.83
2022-09-28T19:08:27.722Z,57.27
2022-09-28T19:10:29.531Z,53.99
2022-09-28T19:12:32.594Z,53.80
2022-09-28T19:14:34.273Z,56.15
2022-09-28T19:16:35.848Z,52.11
2022-09-28T19:18:38.454Z,54.46
2022-09-28T19:20:40.060Z,57.22
2022-09-28T19:22:41.824Z,53.58
2022-09-28T19:24:43.390Z,54.22
2022-09-28T19:26:46.547Z,56.16
2022-09-28T19:28:49.030Z,54.84
2022-09-28T19:33:08.541Z,53.20
2022-09-28T19:35:10.209Z,53.74
2022-09-28T19:37:11.808Z,51.91
2022-09-28T19:39:14.836Z,54.39
2022-09-28T19:41:39.597Z,53.22
2022-09-28T19:43:44.129Z,52.93
2022-09-28T19:45:45.879Z,53.78
2022-09-28T19:47:49.057Z,51.13
2022-09-28T19:49:50.786Z,51.31
2022-09-28T19:52:14.693Z,51.74
2022-09-28T19:54:18.512Z,55.79
2022-09-28T19:56:21.387Z,53.16
2022-09-28T19:58:30.418Z,53.21
2022-09-28T20:00:32.147Z,56.13
2022-09-28T20:02:35.010Z,54.89
2022-09-28T20:04:36.920Z,57.42
2022-09-28T20:06:39.046Z,58.14
2022-09-28T20:08:42.645Z,58.05
2022-09-28T20:10:54.707Z,54.67
2022-09-28T20:12:56.262Z,52.39
2022-09-28T20:14:57.924Z,52.69
2022-09-28T20:16:59.572Z,53.83
2022-09-28T20:19:03.470Z,55.15
2022-09-28T20:21:07.455Z,55.70
2022-09-28T20:23:09.810Z,55.06
2022-09-28T20:25:11.512Z,52.68
2022-09-28T20:27:13.283Z,54.37
2022-09-28T20:29:15.063Z,52.46
2022-09-28T20:31:22.286Z,52.77
2022-09-28T20:33:28.903Z,52.23
2022-09-28T20:35:33.327Z,52.41
2022-09-28T20:37:35.076Z,50.19
2022-09-28T20:39:38.607Z,50.82
2022-09-28T20:41:43.206Z,49.45
2022-09-28T20:43:46.739Z,49.08
2022-09-28T20:45:50.644Z,49.95
2022-09-28T20:47:52.432Z,50.18
2022-09-28T20:49:54.023Z,49.63
2022-09-28T20:51:55.685Z,50.15
2022-09-28T20:53:58.982Z,49.56
2022-09-28T20:56:06.189Z,49.97
2022-09-28T20:58:07.798Z,49.16
2022-09-28T21:00:10.408Z,48.69
2022-09-28T21:02:14.108Z,48.14
2022-09-28T21:04:15.766Z,48.17
2022-09-28T21:06:19.192Z,48.25
2022-09-28T21:08:22.499Z,50.83
2022-09-28T21:10:24.080Z,50.32
2022-09-28T21:12:26.252Z,52.99
2022-09-28T21:14:28.099Z,52.00
2022-09-28T21:16:31.766Z,52.20
2022-09-28T21:18:33.480Z,51.09
2022-09-28T21:20:35.126Z,53.75
2022-09-28T21:22:36.705Z,52.80
2022-09-28T21:24:38.350Z,50.99
2022-09-28T21:26:40.091Z,48.94
2022-09-28T21:28:42.448Z,48.26
2022-09-28T21:30:45.556Z,48.31
2022-09-28T21:32:47.238Z,47.96
2022-09-28T21:34:50.463Z,47.55
2022-09-28T21:36:52.641Z,47.98
2022-09-28T21:38:55.622Z,47.01
2022-09-28T21:40:59.252Z,47.58
2022-09-28T21:43:00.955Z,48.08
2022-09-28T21:45:02.698Z,47.63
2022-09-28T21:47:04.326Z,47.74
2022-09-28T21:49:07.723Z,48.63
2022-09-28T21:51:13.933Z,48.81
2022-09-28T21:53:15.527Z,48.35
2022-09-28T21:55:18.061Z,48.31
2022-09-28T21:57:19.684Z,48.55
2022-09-28T21:59:21.447Z,49.58
2022-09-28T22:01:25.607Z,49.46
2022-09-28T22:03:28.413Z,47.89
2022-09-28T22:05:30.240Z,48.08
2022-09-28T22:07:31.921Z,47.09
2022-09-28T22:09:33.543Z,47.79
2022-09-28T22:11:35.243Z,47.89
2022-09-28T22:13:44.015Z,48.30
2022-09-28T22:15:52.880Z,49.43
2022-09-28T22:17:54.664Z,49.40
2022-09-28T22:19:56.635Z,47.77
2022-09-28T22:21:58.264Z,46.87
2022-09-28T22:24:01.876Z,47.96
2022-09-28T22:26:11.121Z,48.02
2022-09-28T22:28:12.729Z,48.57
2022-09-28T22:30:14.469Z,48.29
2022-09-28T22:32:16.062Z,48.18
2022-09-28T22:34:17.678Z,48.45
2022-09-28T22:36:20.010Z,47.83
2022-09-28T22:38:24.111Z,47.12
2022-09-28T22:40:26.250Z,48.24
2022-09-28T22:42:28.192Z,48.43
2022-09-28T22:44:29.839Z,48.14
2022-09-28T22:46:32.618Z,48.39
2022-09-28T22:48:35.243Z,48.37
2022-09-28T22:50:38.440Z,47.49
2022-09-28T22:52:40.046Z,48.20
2022-09-28T22:54:41.773Z,48.52
2022-09-28T22:56:44.274Z,48.28
2022-09-28T22:58:46.570Z,47.67
2022-09-28T23:00:48.516Z,48.00
2022-09-28T23:02:50.213Z,48.86
2022-09-28T23:04:51.961Z,48.91
2022-09-28T23:06:53.570Z,48.44
2022-09-28T23:08:55.176Z,48.04
2022-09-28T23:10:56.760Z,48.17
2022-09-28T23:12:58.491Z,49.15
2022-09-28T23:15:00.107Z,48.48
2022-09-28T23:17:01.860Z,48.21
2022-09-28T23:19:03.572Z,47.56
2022-09-28T23:21:07.874Z,48.50
2022-09-28T23:23:09.435Z,49.51
2022-09-28T23:25:11.047Z,48.40
2022-09-28T23:27:12.623Z,49.95
2022-09-28T23:29:14.312Z,51.04
2022-09-28T23:31:28.490Z,50.28
2022-09-28T23:33:30.189Z,51.02
2022-09-28T23:35:34.047Z,51.65
2022-09-28T23:37:35.961Z,50.88
2022-09-28T23:39:37.567Z,49.83
2022-09-28T23:41:39.975Z,52.63
2022-09-28T23:43:41.615Z,50.36
2022-09-28T23:45:44.120Z,50.37
2022-09-28T23:47:45.706Z,49.61
2022-09-28T23:49:47.323Z,49.61
2022-09-28T23:51:49.319Z,49.23
2022-09-28T23:53:50.984Z,49.56
2022-09-28T23:55:53.374Z,50.18
2022-09-28T23:57:56.717Z,49.94
2022-09-28T23:59:58.686Z,50.12
